Time;durP1;ratioP1;P1;durP2;ratioP2;P2;SDS_P1;SDS_P2;PMS_P1;PMS_P2;Temp;Humidity;BMP_temperature;BMP_pressure;BME280_temperature;BME280_humidity;BME280_pressure;Samples;Min_cycle;Max_cycle;Signal;HPM_P1;HPM_P2
2022/06/23 00:00:32;;;;;;;1.43;1.10;;;;;;;;;;5029715;28;20935;-87
2022/06/23 00:03:00;;;;;;;1.37;1.00;;;;;;;;;;5031143;28;20892;-86
2022/06/23 00:05:29;;;;;;;1.60;1.00;;;;;;;;;;5029245;28;20466;-86
2022/06/23 00:07:57;;;;;;;1.10;1.00;;;;;;;;;;5026367;28;20813;-84
2022/06/23 00:10:26;;;;;;;1.20;1.00;;;;;;;;;;5027426;28;20492;-86
2022/06/23 00:12:55;;;;;;;1.20;0.93;;;;;;;;;;5030456;28;20971;-86
2022/06/23 00:15:26;;;;;;;1.50;1.20;;;;;;;;;;5025108;28;20482;-86
2022/06/23 00:18:01;;;;;;;1.30;1.20;;;;;;;;;;5032241;28;20453;-88
2022/06/23 00:20:32;;;;;;;1.43;1.33;;;;;;;;;;5032402;28;20466;-87
2022/06/23 00:23:03;;;;;;;1.43;0.90;;;;;;;;;;5027363;28;20489;-87
2022/06/23 00:25:38;;;;;;;1.10;0.90;;;;;;;;;;5030446;28;20462;-87
2022/06/23 00:28:07;;;;;;;1.63;1.20;;;;;;;;;;5030777;28;20461;-86
2022/06/23 00:30:37;;;;;;;2.47;1.13;;;;;;;;;;5030601;28;20921;-87
2022/06/23 00:33:06;;;;;;;1.10;0.90;;;;;;;;;;5028334;28;20461;-86
2022/06/23 00:35:34;;;;;;;2.10;1.20;;;;;;;;;;5030515;28;20568;-86
2022/06/23 00:38:01;;;;;;;2.03;1.30;;;;;;;;;;5027116;28;20494;-86
2022/06/23 00:40:28;;;;;;;2.17;1.50;;;;;;;;;;5031244;28;20527;-87
2022/06/23 00:42:57;;;;;;;1.33;1.10;;;;;;;;;;5030861;28;20880;-85
2022/06/23 00:45:28;;;;;;;1.43;1.33;;;;;;;;;;5026667;28;21097;-87
2022/06/23 00:47:57;;;;;;;2.37;1.43;;;;;;;;;;5022870;28;20523;-86
2022/06/23 00:50:27;;;;;;;1.67;1.40;;;;;;;;;;5028046;28;20559;-87
2022/06/23 00:52:58;;;;;;;1.63;1.53;;;;;;;;;;5028857;28;20454;-87
2022/06/23 00:55:31;;;;;;;1.43;1.20;;;;;;;;;;5030198;28;20474;-87
2022/06/23 00:58:01;;;;;;;3.63;1.30;;;;;;;;;;5030234;28;20482;-83
2022/06/23 01:00:33;;;;;;;1.80;1.40;;;;;;;;;;5025804;28;20467;-85
2022/06/23 01:03:02;;;;;;;1.40;1.30;;;;;;;;;;5030408;28;20477;-90
2022/06/23 01:05:34;;;;;;;1.40;1.20;;;;;;;;;;5029686;28;20454;-82
2022/06/23 01:08:05;;;;;;;1.40;1.30;;;;;;;;;;5027226;28;20461;-86
2022/06/23 01:10:34;;;;;;;1.30;1.10;;;;;;;;;;5030005;28;20482;-85
2022/06/23 01:13:05;;;;;;;3.33;1.10;;;;;;;;;;5028592;28;20466;-87
2022/06/23 01:15:36;;;;;;;2.70;1.30;;;;;;;;;;5031238;28;20485;-87
2022/06/23 01:18:05;;;;;;;1.63;1.37;;;;;;;;;;5034122;28;20528;-82
2022/06/23 01:20:36;;;;;;;2.20;1.70;;;;;;;;;;5031961;28;20446;-86
2022/06/23 01:23:17;;;;;;;1.37;1.17;;;;;;;;;;5022789;28;20442;-86
2022/06/23 01:25:53;;;;;;;1.37;1.13;;;;;;;;;;5027042;28;20458;-87
2022/06/23 01:28:23;;;;;;;1.83;1.43;;;;;;;;;;5031885;28;20446;-86
2022/06/23 01:30:51;;;;;;;1.40;1.20;;;;;;;;;;5028672;28;20453;-84
2022/06/23 01:33:22;;;;;;;2.63;1.40;;;;;;;;;;5031932;28;20438;-86
2022/06/23 01:35:54;;;;;;;3.20;1.70;;;;;;;;;;5029166;28;20481;-88
2022/06/23 01:38:23;;;;;;;1.30;1.20;;;;;;;;;;5027442;28;20984;-87
2022/06/23 01:40:54;;;;;;;1.43;1.33;;;;;;;;;;5030480;28;20520;-87
2022/06/23 01:43:25;;;;;;;1.80;1.13;;;;;;;;;;5031285;28;20957;-87
2022/06/23 01:45:54;;;;;;;1.00;0.90;;;;;;;;;;5032436;28;20458;-88
2022/06/23 01:51:05;;;;;;;1.87;1.57;;;;;;;;;;5035419;28;20437;-85
2022/06/23 01:53:34;;;;;;;2.07;1.30;;;;;;;;;;5034201;28;20453;-87
2022/06/23 01:56:07;;;;;;;2.87;1.40;;;;;;;;;;5034772;28;20949;-88
2022/06/23 01:58:41;;;;;;;1.53;1.10;;;;;;;;;;5033593;28;20454;-88
2022/06/23 02:01:15;;;;;;;2.65;1.30;;;;;;;;;;5027227;28;20457;-87
2022/06/23 02:03:44;;;;;;;2.27;1.63;;;;;;;;;;5037647;28;20261;-86
2022/06/23 02:06:16;;;;;;;2.90;1.47;;;;;;;;;;5034562;28;20458;-89
2022/06/23 02:08:45;;;;;;;2.13;1.83;;;;;;;;;;5035129;28;20517;-87
2022/06/23 02:11:15;;;;;;;1.40;1.10;;;;;;;;;;5036174;28;20463;-87
2022/06/23 02:13:45;;;;;;;1.83;1.40;;;;;;;;;;5036012;28;20446;-87
2022/06/23 02:16:17;;;;;;;2.53;1.70;;;;;;;;;;5032639;28;20868;-89
2022/06/23 02:18:47;;;;;;;1.30;1.20;;;;;;;;;;5034412;28;20203;-89
2022/06/23 02:21:22;;;;;;;2.20;1.37;;;;;;;;;;5028150;28;20467;-89
2022/06/23 02:23:52;;;;;;;2.10;1.50;;;;;;;;;;5033212;28;20445;-88
2022/06/23 02:26:22;;;;;;;1.67;1.57;;;;;;;;;;5032980;28;20470;-89
2022/06/23 02:28:57;;;;;;;4.13;1.87;;;;;;;;;;5034893;28;20495;-88
2022/06/23 02:31:28;;;;;;;3.30;1.50;;;;;;;;;;5032609;28;20448;-90
2022/06/23 02:33:58;;;;;;;1.80;1.70;;;;;;;;;;5035658;28;20862;-89
2022/06/23 02:36:34;;;;;;;2.30;1.80;;;;;;;;;;5029619;28;20486;-87
2022/06/23 02:39:03;;;;;;;1.87;1.77;;;;;;;;;;5035306;28;20470;-86
2022/06/23 02:41:32;;;;;;;1.90;1.77;;;;;;;;;;5032001;28;20494;-86
2022/06/23 02:44:18;;;;;;;2.10;1.90;;;;;;;;;;5033690;28;20446;-86
2022/06/23 02:46:55;;;;;;;5.47;1.75;;;;;;;;;;5030554;28;20199;-87
2022/06/23 02:49:39;;;;;;;3.80;2.03;;;;;;;;;;5032761;28;20713;-87
2022/06/23 02:52:27;;;;;;;2.30;1.53;;;;;;;;;;5023400;28;20462;-89
2022/06/23 02:55:15;;;;;;;4.45;2.30;;;;;;;;;;5027599;28;20469;-86
2022/06/23 02:57:47;;;;;;;2.43;2.17;;;;;;;;;;5032744;28;20238;-86
2022/06/23 03:00:18;;;;;;;2.85;2.15;;;;;;;;;;5050997;28;20438;-81
2022/06/23 03:02:51;;;;;;;2.13;1.92;;;;;;;;;;5030123;28;20284;-83
2022/06/23 03:05:23;;;;;;;1.80;1.50;;;;;;;;;;5032292;28;20202;-81
2022/06/23 03:07:53;;;;;;;2.00;1.55;;;;;;;;;;5029361;28;20465;-82
2022/06/23 03:10:22;;;;;;;1.90;1.55;;;;;;;;;;5032654;28;20246;-81
2022/06/23 03:12:51;;;;;;;2.50;1.70;;;;;;;;;;5032009;28;20252;-82
2022/06/23 03:15:23;;;;;;;3.05;1.95;;;;;;;;;;5031474;28;20203;-82
2022/06/23 03:17:53;;;;;;;2.38;1.63;;;;;;;;;;5024096;28;20191;-82
2022/06/23 03:20:24;;;;;;;2.58;1.77;;;;;;;;;;5032825;28;20198;-82
2022/06/23 03:22:53;;;;;;;1.75;1.45;;;;;;;;;;5027688;28;20202;-82
2022/06/23 03:25:24;;;;;;;2.28;1.70;;;;;;;;;;5031476;28;20225;-81
2022/06/23 03:27:53;;;;;;;2.38;1.60;;;;;;;;;;5032779;28;20191;-81
2022/06/23 03:30:24;;;;;;;1.75;1.42;;;;;;;;;;5024942;28;20207;-81
2022/06/23 03:32:54;;;;;;;2.28;2.08;;;;;;;;;;5031220;28;20205;-81
2022/06/23 03:35:22;;;;;;;2.75;2.35;;;;;;;;;;5020044;28;20198;-81
2022/06/23 03:37:53;;;;;;;1.73;1.63;;;;;;;;;;5027811;28;20683;-81
2022/06/23 03:43:13;;;;;;;1.98;1.88;;;;;;;;;;5033193;28;20192;-87
2022/06/23 03:45:43;;;;;;;2.45;1.55;;;;;;;;;;5029904;28;20240;-86
2022/06/23 03:48:13;;;;;;;4.05;1.90;;;;;;;;;;5032850;28;20647;-84
2022/06/23 03:50:45;;;;;;;1.60;1.50;;;;;;;;;;5030598;28;20198;-86
2022/06/23 03:53:15;;;;;;;2.63;1.98;;;;;;;;;;5027962;28;20205;-86
2022/06/23 03:55:44;;;;;;;1.70;1.60;;;;;;;;;;5031145;28;20218;-86
2022/06/23 03:58:15;;;;;;;1.90;1.60;;;;;;;;;;5030701;28;20719;-86
2022/06/23 04:00:47;;;;;;;3.25;3.00;;;;;;;;;;5026426;28;20204;-85
2022/06/23 04:03:20;;;;;;;1.90;1.80;;;;;;;;;;5034106;28;20224;-87
2022/06/23 04:06:14;;;;;;;2.40;2.20;;;;;;;;;;5032214;28;20197;-86
2022/06/23 04:08:46;;;;;;;3.15;1.77;;;;;;;;;;4988981;28;20208;-86
2022/06/23 04:14:02;;;;;;;2.88;2.05;;;;;;;;;;5036345;28;20206;-86
2022/06/23 04:16:32;;;;;;;2.35;1.90;;;;;;;;;;5025316;28;20229;-85
2022/06/23 04:19:00;;;;;;;1.73;1.45;;;;;;;;;;5030540;28;20216;-86
2022/06/23 04:21:29;;;;;;;2.40;2.08;;;;;;;;;;5032850;28;20278;-85
2022/06/23 04:23:58;;;;;;;4.45;2.50;;;;;;;;;;5036304;28;20299;-86
2022/06/23 04:26:29;;;;;;;3.50;1.83;;;;;;;;;;5035267;28;20244;-85
2022/06/23 04:28:58;;;;;;;2.42;1.83;;;;;;;;;;5040005;28;20198;-86
2022/06/23 04:31:27;;;;;;;3.28;2.83;;;;;;;;;;5032410;28;20352;-86
2022/06/23 04:33:57;;;;;;;2.95;2.10;;;;;;;;;;5036593;28;20641;-85
2022/06/23 04:36:25;;;;;;;1.92;1.83;;;;;;;;;;5039556;28;20239;-86
2022/06/23 04:38:53;;;;;;;2.25;1.70;;;;;;;;;;5044299;28;20206;-85
2022/06/23 04:41:22;;;;;;;2.25;2.05;;;;;;;;;;5034784;28;20203;-86
2022/06/23 04:43:51;;;;;;;2.22;1.95;;;;;;;;;;5033626;28;20210;-85
2022/06/23 04:46:20;;;;;;;2.65;2.00;;;;;;;;;;5026713;28;20197;-85
2022/06/23 04:48:51;;;;;;;4.47;2.00;;;;;;;;;;5030089;28;20207;-85
2022/06/23 04:51:25;;;;;;;2.05;1.70;;;;;;;;;;5032558;28;20201;-86
2022/06/23 04:53:55;;;;;;;2.15;1.83;;;;;;;;;;5032012;28;20262;-85
2022/06/23 04:56:26;;;;;;;2.95;2.30;;;;;;;;;;5030569;28;20277;-85
2022/06/23 04:58:56;;;;;;;1.63;1.52;;;;;;;;;;5035464;28;20189;-86
2022/06/23 05:01:26;;;;;;;1.85;1.52;;;;;;;;;;5021790;28;20238;-87
2022/06/23 05:03:56;;;;;;;1.98;1.77;;;;;;;;;;5031990;28;20210;-85
2022/06/23 05:06:30;;;;;;;2.10;1.80;;;;;;;;;;5027847;28;20225;-85
2022/06/23 05:09:01;;;;;;;2.72;1.90;;;;;;;;;;5030102;28;20216;-85
2022/06/23 05:11:30;;;;;;;3.00;1.77;;;;;;;;;;5028591;28;20867;-83
2022/06/23 05:13:59;;;;;;;3.67;1.90;;;;;;;;;;5029767;28;20196;-84
2022/06/23 05:16:28;;;;;;;2.30;1.80;;;;;;;;;;5029079;28;20694;-83
2022/06/23 05:18:57;;;;;;;3.33;1.63;;;;;;;;;;5030108;28;20201;-82
2022/06/23 05:21:25;;;;;;;1.70;1.60;;;;;;;;;;5025709;28;20586;-82
2022/06/23 05:23:59;;;;;;;2.30;2.00;;;;;;;;;;5029609;28;20191;-83
2022/06/23 05:26:28;;;;;;;1.92;1.40;;;;;;;;;;5028949;28;20197;-84
2022/06/23 05:28:57;;;;;;;2.10;1.48;;;;;;;;;;5034466;28;20202;-87
2022/06/23 05:31:26;;;;;;;1.92;1.40;;;;;;;;;;5027813;28;20732;-85
2022/06/23 05:33:54;;;;;;;1.60;1.50;;;;;;;;;;5035685;28;20213;-84
2022/06/23 05:36:24;;;;;;;3.72;1.55;;;;;;;;;;5030094;28;20226;-84
2022/06/23 05:38:54;;;;;;;3.25;2.25;;;;;;;;;;5030442;28;20194;-86
2022/06/23 05:41:25;;;;;;;2.15;1.90;;;;;;;;;;5029550;28;20244;-84
2022/06/23 05:43:54;;;;;;;5.40;1.87;;;;;;;;;;5033897;28;20202;-86
2022/06/23 05:46:22;;;;;;;3.92;1.75;;;;;;;;;;5023053;28;20902;-87
2022/06/23 05:48:57;;;;;;;2.20;1.67;;;;;;;;;;5030796;28;20210;-85
2022/06/23 05:51:28;;;;;;;2.07;1.87;;;;;;;;;;5025702;28;20468;-85
2022/06/23 05:54:00;;;;;;;2.33;1.77;;;;;;;;;;5030624;28;20470;-88
2022/06/23 05:56:32;;;;;;;5.43;1.30;;;;;;;;;;5030196;28;20505;-84
2022/06/23 05:59:02;;;;;;;2.70;1.67;;;;;;;;;;5028812;28;20524;-87
2022/06/23 06:01:31;;;;;;;1.50;1.10;;;;;;;;;;5027838;28;21024;-85
2022/06/23 06:04:01;;;;;;;2.23;1.50;;;;;;;;;;5031226;28;20426;-85
2022/06/23 06:06:28;;;;;;;1.30;1.20;;;;;;;;;;5024896;28;20490;-84
2022/06/23 06:11:45;;;;;;;2.37;1.40;;;;;;;;;;5029719;28;20820;-87
2022/06/23 06:14:13;;;;;;;1.97;1.20;;;;;;;;;;5031421;28;20947;-83
2022/06/23 06:16:41;;;;;;;1.63;1.53;;;;;;;;;;5022644;28;20853;-85
2022/06/23 06:19:11;;;;;;;1.80;1.47;;;;;;;;;;5027811;28;20485;-86
2022/06/23 06:21:38;;;;;;;1.40;1.30;;;;;;;;;;5026287;28;20457;-85
2022/06/23 06:24:10;;;;;;;1.83;1.60;;;;;;;;;;5029191;28;20465;-82
2022/06/23 06:26:37;;;;;;;1.50;1.40;;;;;;;;;;5028362;28;20462;-83
2022/06/23 06:29:14;;;;;;;2.67;1.63;;;;;;;;;;5024951;28;20813;-84
2022/06/23 06:31:44;;;;;;;2.33;1.70;;;;;;;;;;5023361;28;20533;-84
2022/06/23 06:34:14;;;;;;;1.60;1.50;;;;;;;;;;5036535;28;20462;-84
2022/06/23 06:36:42;;;;;;;2.10;1.37;;;;;;;;;;5033465;28;20482;-83
2022/06/23 06:39:12;;;;;;;1.80;1.63;;;;;;;;;;5034849;28;20787;-86
2022/06/23 06:41:40;;;;;;;2.17;1.40;;;;;;;;;;5031481;28;20469;-85
2022/06/23 06:44:10;;;;;;;3.30;1.50;;;;;;;;;;5033040;28;20481;-85
2022/06/23 06:46:38;;;;;;;1.70;1.60;;;;;;;;;;5029677;28;20864;-82
2022/06/23 06:49:06;;;;;;;2.90;1.73;;;;;;;;;;5026647;28;20467;-84
2022/06/23 06:51:33;;;;;;;1.77;1.20;;;;;;;;;;5025231;28;20459;-85
2022/06/23 06:54:02;;;;;;;1.90;1.40;;;;;;;;;;5034749;28;20985;-86
2022/06/23 06:56:35;;;;;;;2.43;1.20;;;;;;;;;;5029894;28;20868;-87
2022/06/23 06:59:04;;;;;;;2.20;1.50;;;;;;;;;;5025456;28;20453;-88
2022/06/23 07:01:34;;;;;;;2.90;1.77;;;;;;;;;;5025042;28;20494;-84
2022/06/23 07:04:01;;;;;;;2.33;1.20;;;;;;;;;;5033177;28;20474;-83
2022/06/23 07:06:32;;;;;;;1.50;1.40;;;;;;;;;;5031431;28;20617;-84
2022/06/23 07:09:03;;;;;;;1.60;1.20;;;;;;;;;;5030637;28;20438;-82
2022/06/23 07:11:31;;;;;;;2.07;1.33;;;;;;;;;;5031829;28;20451;-83
2022/06/23 07:14:02;;;;;;;2.50;1.40;;;;;;;;;;5026232;28;20860;-82
2022/06/23 07:16:32;;;;;;;2.10;1.20;;;;;;;;;;5028617;28;20973;-85
2022/06/23 07:19:04;;;;;;;1.33;1.00;;;;;;;;;;5028995;28;21032;-82
2022/06/23 07:21:38;;;;;;;1.50;1.20;;;;;;;;;;5029614;28;20845;-83
2022/06/23 07:24:11;;;;;;;1.40;1.30;;;;;;;;;;5018431;28;20466;-83
2022/06/23 07:26:42;;;;;;;2.13;1.30;;;;;;;;;;5033417;28;20469;-82
2022/06/23 07:29:14;;;;;;;1.97;1.47;;;;;;;;;;5033148;28;20965;-83
2022/06/23 07:31:46;;;;;;;1.30;1.10;;;;;;;;;;5027222;28;20458;-83
2022/06/23 07:34:15;;;;;;;1.50;1.20;;;;;;;;;;5028705;28;20979;-84
2022/06/23 07:36:44;;;;;;;2.60;1.20;;;;;;;;;;5027123;28;20454;-84
2022/06/23 07:39:14;;;;;;;1.60;1.30;;;;;;;;;;5030693;28;20883;-83
2022/06/23 07:41:43;;;;;;;12.37;2.10;;;;;;;;;;5028679;28;20475;-82
2022/06/23 07:44:13;;;;;;;1.20;1.10;;;;;;;;;;5027982;28;20462;-84
2022/06/23 07:46:40;;;;;;;3.47;1.23;;;;;;;;;;5025638;28;20720;-82
2022/06/23 07:49:08;;;;;;;2.13;1.10;;;;;;;;;;5030744;28;20467;-83
2022/06/23 07:51:37;;;;;;;1.53;1.30;;;;;;;;;;5029663;28;20545;-82
2022/06/23 07:54:04;;;;;;;1.47;1.37;;;;;;;;;;5029496;28;20497;-83
2022/06/23 07:56:33;;;;;;;1.23;1.13;;;;;;;;;;5031245;28;21022;-80
2022/06/23 07:59:02;;;;;;;1.80;1.37;;;;;;;;;;5029000;28;20473;-84
2022/06/23 08:01:31;;;;;;;1.93;1.37;;;;;;;;;;5027313;28;20489;-83
2022/06/23 08:04:03;;;;;;;1.90;1.70;;;;;;;;;;5030366;28;20447;-83
2022/06/23 08:06:31;;;;;;;2.13;1.50;;;;;;;;;;5028916;28;20486;-83
2022/06/23 08:09:02;;;;;;;1.90;1.17;;;;;;;;;;5030166;28;20457;-84
2022/06/23 08:14:16;;;;;;;3.00;1.60;;;;;;;;;;5022067;28;20445;-83
2022/06/23 08:16:50;;;;;;;1.33;1.20;;;;;;;;;;5025529;28;20481;-84
2022/06/23 08:19:19;;;;;;;1.80;1.40;;;;;;;;;;5023732;28;20461;-83
2022/06/23 08:21:49;;;;;;;1.30;1.20;;;;;;;;;;5024120;28;20459;-83
2022/06/23 08:24:19;;;;;;;1.97;1.37;;;;;;;;;;5023601;28;20516;-83
2022/06/23 08:26:48;;;;;;;1.70;1.30;;;;;;;;;;5023460;28;20454;-83
2022/06/23 08:29:18;;;;;;;1.50;1.37;;;;;;;;;;5022954;28;20465;-85
2022/06/23 08:31:45;;;;;;;1.97;1.30;;;;;;;;;;5021312;28;20957;-86
2022/06/23 08:34:12;;;;;;;2.57;1.50;;;;;;;;;;5024404;28;21073;-85
2022/06/23 08:36:41;;;;;;;3.17;1.70;;;;;;;;;;5021960;28;20461;-87
2022/06/23 08:39:11;;;;;;;2.07;1.30;;;;;;;;;;5021655;28;20486;-85
2022/06/23 08:41:43;;;;;;;2.80;1.60;;;;;;;;;;5021642;28;20454;-85
2022/06/23 08:44:12;;;;;;;1.77;1.37;;;;;;;;;;5023876;28;20470;-85
2022/06/23 08:46:40;;;;;;;1.50;1.27;;;;;;;;;;5024911;28;20813;-86
2022/06/23 08:49:10;;;;;;;1.90;1.50;;;;;;;;;;5027901;28;20458;-88
2022/06/23 08:51:41;;;;;;;2.50;1.70;;;;;;;;;;5026536;28;20454;-89
2022/06/23 08:54:11;;;;;;;2.50;1.57;;;;;;;;;;5021594;28;20891;-82
2022/06/23 08:56:44;;;;;;;2.40;1.70;;;;;;;;;;5028480;28;20461;-86
2022/06/23 08:59:16;;;;;;;1.60;1.50;;;;;;;;;;5028808;28;20478;-84
2022/06/23 09:01:45;;;;;;;1.87;1.40;;;;;;;;;;5023798;28;20497;-83
2022/06/23 09:04:19;;;;;;;1.87;1.43;;;;;;;;;;5023464;28;20688;-87
2022/06/23 09:06:51;;;;;;;1.97;1.40;;;;;;;;;;5018717;28;20825;-84
2022/06/23 09:09:26;;;;;;;1.70;1.30;;;;;;;;;;5024131;28;20818;-85
2022/06/23 09:11:59;;;;;;;2.07;1.37;;;;;;;;;;5028313;28;20851;-87
2022/06/23 09:14:35;;;;;;;2.10;1.50;;;;;;;;;;5036913;28;20453;-85
2022/06/23 09:17:07;;;;;;;1.80;1.37;;;;;;;;;;5016180;28;20960;-87
2022/06/23 09:19:42;;;;;;;2.47;1.60;;;;;;;;;;5022297;28;20889;-85
2022/06/23 09:22:28;;;;;;;1.77;1.33;;;;;;;;;;5021955;28;20856;-87
2022/06/23 09:25:01;;;;;;;2.40;1.27;;;;;;;;;;5024943;28;20960;-87
2022/06/23 09:27:36;;;;;;;1.93;1.70;;;;;;;;;;5024180;28;20861;-88
2022/06/23 09:30:05;;;;;;;4.00;1.53;;;;;;;;;;5026838;28;20468;-85
2022/06/23 09:32:41;;;;;;;1.87;1.50;;;;;;;;;;5024195;28;20450;-86
2022/06/23 09:35:19;;;;;;;2.33;1.80;;;;;;;;;;5018982;28;20462;-84
2022/06/23 09:37:55;;;;;;;2.27;1.40;;;;;;;;;;5022049;28;20474;-83
2022/06/23 09:40:37;;;;;;;3.53;1.73;;;;;;;;;;5026040;28;21040;-85
2022/06/23 09:43:19;;;;;;;4.40;1.87;;;;;;;;;;5020810;28;20469;-84
2022/06/23 09:46:02;;;;;;;2.07;1.67;;;;;;;;;;5020881;28;20462;-83
2022/06/23 09:48:41;;;;;;;1.60;1.50;;;;;;;;;;5025500;28;20450;-83
2022/06/23 09:51:24;;;;;;;1.80;1.60;;;;;;;;;;5022306;28;20462;-81
2022/06/23 09:54:09;;;;;;;2.20;2.00;;;;;;;;;;5030840;28;20470;-85
2022/06/23 09:56:51;;;;;;;2.17;1.97;;;;;;;;;;5007209;28;20469;-85
2022/06/23 09:59:33;;;;;;;1.80;1.70;;;;;;;;;;5027604;28;20572;-83
2022/06/23 10:02:06;;;;;;;5.67;1.73;;;;;;;;;;5030514;28;20458;-84
2022/06/23 10:04:45;;;;;;;2.70;2.00;;;;;;;;;;5030750;28;20998;-84
2022/06/23 10:07:21;;;;;;;1.50;1.30;;;;;;;;;;5027415;28;20472;-84
2022/06/23 10:09:55;;;;;;;1.70;1.60;;;;;;;;;;5035249;28;20813;-85
2022/06/23 10:12:28;;;;;;;2.73;2.00;;;;;;;;;;5033787;28;20477;-82
2022/06/23 10:15:03;;;;;;;2.07;1.87;;;;;;;;;;5027672;28;20489;-84
2022/06/23 10:17:49;;;;;;;2.90;1.70;;;;;;;;;;5033802;28;20461;-81
2022/06/23 10:20:27;;;;;;;1.60;1.40;;;;;;;;;;5028624;28;20442;-84
2022/06/23 10:23:04;;;;;;;2.00;1.73;;;;;;;;;;5026699;28;20975;-85
2022/06/23 10:25:46;;;;;;;2.03;1.83;;;;;;;;;;5031859;28;20461;-85
2022/06/23 10:28:25;;;;;;;3.00;2.10;;;;;;;;;;5030149;28;20462;-81
2022/06/23 10:30:59;;;;;;;2.37;1.70;;;;;;;;;;5030037;28;20471;-81
2022/06/23 10:33:39;;;;;;;4.23;1.90;;;;;;;;;;5034891;28;20441;-85
2022/06/23 10:36:22;;;;;;;1.53;1.43;;;;;;;;;;5034435;28;20462;-82
2022/06/23 10:38:57;;;;;;;2.00;1.80;;;;;;;;;;5030492;28;21019;-82
2022/06/23 10:41:33;;;;;;;2.10;1.80;;;;;;;;;;5034295;28;20454;-84
2022/06/23 10:44:13;;;;;;;2.40;2.20;;;;;;;;;;5030548;28;20454;-84
2022/06/23 10:46:43;;;;;;;3.63;2.40;;;;;;;;;;5028424;28;20829;-82
2022/06/23 10:49:26;;;;;;;1.80;1.70;;;;;;;;;;5032718;28;20876;-83
2022/06/23 10:52:15;;;;;;;2.47;1.53;;;;;;;;;;5029126;28;20945;-85
2022/06/23 10:55:03;;;;;;;3.10;2.00;;;;;;;;;;5034176;28;20462;-84
2022/06/23 10:57:45;;;;;;;2.37;1.93;;;;;;;;;;5008565;28;20465;-85
2022/06/23 11:00:13;;;;;;;2.10;1.90;;;;;;;;;;5030572;28;20461;-84
2022/06/23 11:03:03;;;;;;;2.30;1.70;;;;;;;;;;5029459;28;20482;-83
2022/06/23 11:05:49;;;;;;;2.30;2.00;;;;;;;;;;5033303;28;20469;-84
2022/06/23 11:08:29;;;;;;;2.50;2.30;;;;;;;;;;5027712;28;20458;-83
2022/06/23 11:11:03;;;;;;;1.73;1.63;;;;;;;;;;5033120;28;20439;-84
2022/06/23 11:13:35;;;;;;;2.00;1.80;;;;;;;;;;5031770;28;20485;-87
2022/06/23 11:16:07;;;;;;;2.20;2.00;;;;;;;;;;5023022;28;20464;-86
2022/06/23 11:18:46;;;;;;;2.20;2.00;;;;;;;;;;5021334;28;20487;-82
2022/06/23 11:21:22;;;;;;;1.57;1.30;;;;;;;;;;5026936;28;20972;-83
2022/06/23 11:23:53;;;;;;;2.40;2.00;;;;;;;;;;5030560;28;20462;-84
2022/06/23 11:26:30;;;;;;;3.07;2.10;;;;;;;;;;5032805;28;20868;-82
2022/06/23 11:29:05;;;;;;;2.00;1.73;;;;;;;;;;5031895;28;21073;-84
2022/06/23 11:31:39;;;;;;;1.90;1.80;;;;;;;;;;5030226;28;20462;-85
2022/06/23 11:34:24;;;;;;;2.17;2.03;;;;;;;;;;5024805;28;20549;-84
2022/06/23 11:36:58;;;;;;;2.07;1.90;;;;;;;;;;5028426;28;20455;-85
2022/06/23 11:39:33;;;;;;;2.13;1.93;;;;;;;;;;5030194;28;20470;-85
2022/06/23 11:42:10;;;;;;;2.47;2.27;;;;;;;;;;5030999;28;20464;-84
2022/06/23 11:44:43;;;;;;;3.50;2.27;;;;;;;;;;5031661;28;20491;-83
2022/06/23 11:47:14;;;;;;;1.90;1.60;;;;;;;;;;5035182;28;20449;-84
2022/06/23 11:49:48;;;;;;;5.83;2.27;;;;;;;;;;5030881;28;20957;-84
2022/06/23 11:52:39;;;;;;;2.30;2.10;;;;;;;;;;5028387;28;20450;-83
2022/06/23 11:55:15;;;;;;;1.80;1.70;;;;;;;;;;5032680;28;20906;-82
2022/06/23 11:57:51;;;;;;;2.87;1.90;;;;;;;;;;5032124;28;20952;-84
2022/06/23 12:00:20;;;;;;;2.73;2.10;;;;;;;;;;5031602;28;20446;-85
2022/06/23 12:02:56;;;;;;;2.60;2.30;;;;;;;;;;5029904;28;20496;-84
2022/06/23 12:05:30;;;;;;;4.80;2.10;;;;;;;;;;5030024;28;20473;-80
2022/06/23 12:08:04;;;;;;;2.03;1.83;;;;;;;;;;5031239;28;20493;-85
2022/06/23 12:10:33;;;;;;;2.50;2.10;;;;;;;;;;5033225;28;20454;-85
2022/06/23 12:13:02;;;;;;;2.40;2.20;;;;;;;;;;5031913;28;20545;-84
2022/06/23 12:15:31;;;;;;;2.10;1.90;;;;;;;;;;5027835;28;20529;-83
2022/06/23 12:18:00;;;;;;;3.50;2.20;;;;;;;;;;5032284;28;20988;-84
2022/06/23 12:20:32;;;;;;;3.80;1.70;;;;;;;;;;5031124;28;20462;-84
2022/06/23 12:23:02;;;;;;;4.43;2.10;;;;;;;;;;5028615;28;20454;-84
2022/06/23 12:25:32;;;;;;;3.63;2.50;;;;;;;;;;5029773;28;20455;-84
2022/06/23 12:28:04;;;;;;;2.37;2.20;;;;;;;;;;5029606;28;20439;-85
2022/06/23 12:30:34;;;;;;;3.30;3.10;;;;;;;;;;5028093;28;20469;-84
2022/06/23 12:33:06;;;;;;;2.40;2.20;;;;;;;;;;5031786;28;20442;-84
2022/06/23 12:35:39;;;;;;;3.93;2.33;;;;;;;;;;5031432;28;20446;-86
2022/06/23 12:38:10;;;;;;;3.43;2.30;;;;;;;;;;5024903;28;20465;-85
2022/06/23 12:40:41;;;;;;;3.37;2.40;;;;;;;;;;5030043;28;20451;-84
2022/06/23 12:43:13;;;;;;;1.90;1.80;;;;;;;;;;5031778;28;20430;-85
2022/06/23 12:45:49;;;;;;;5.80;2.03;;;;;;;;;;5028208;28;20999;-84
2022/06/23 12:48:21;;;;;;;2.43;2.23;;;;;;;;;;5029475;28;20952;-84
2022/06/23 12:50:55;;;;;;;2.20;2.00;;;;;;;;;;5031356;28;20450;-84
2022/06/23 12:53:40;;;;;;;2.20;2.00;;;;;;;;;;5029031;28;20462;-84
2022/06/23 12:56:12;;;;;;;2.10;1.90;;;;;;;;;;5018729;28;20925;-84
2022/06/23 12:58:42;;;;;;;2.17;1.97;;;;;;;;;;5030460;28;20991;-83
2022/06/23 13:01:12;;;;;;;3.40;2.63;;;;;;;;;;5029270;28;20948;-84
2022/06/23 13:03:47;;;;;;;2.57;2.37;;;;;;;;;;5031160;28;20450;-84
2022/06/23 13:06:20;;;;;;;2.00;1.90;;;;;;;;;;5029176;28;20825;-85
2022/06/23 13:08:51;;;;;;;4.73;2.30;;;;;;;;;;5030407;28;20529;-85
2022/06/23 13:11:20;;;;;;;2.13;2.00;;;;;;;;;;5028609;28;20470;-83
2022/06/23 13:13:50;;;;;;;3.40;1.83;;;;;;;;;;5026905;28;20466;-84
2022/06/23 13:16:19;;;;;;;1.80;1.70;;;;;;;;;;5025727;28;20949;-83
2022/06/23 13:18:48;;;;;;;2.93;2.73;;;;;;;;;;5030649;28;20494;-85
2022/06/23 13:21:17;;;;;;;2.23;2.03;;;;;;;;;;5030675;28;20446;-83
2022/06/23 13:23:47;;;;;;;2.33;2.13;;;;;;;;;;5029578;28;20458;-84
2022/06/23 13:26:17;;;;;;;3.73;1.97;;;;;;;;;;5030114;28;20482;-85
2022/06/23 13:28:44;;;;;;;2.37;2.13;;;;;;;;;;5031200;28;20957;-80
2022/06/23 13:31:15;;;;;;;3.00;1.90;;;;;;;;;;5027245;28;20873;-84
2022/06/23 13:33:45;;;;;;;3.73;2.27;;;;;;;;;;5030196;28;20470;-83
2022/06/23 13:36:17;;;;;;;3.10;2.20;;;;;;;;;;5030806;28;20525;-84
2022/06/23 13:38:49;;;;;;;3.47;2.33;;;;;;;;;;5021367;28;20840;-82
2022/06/23 13:41:19;;;;;;;1.80;1.70;;;;;;;;;;5035587;28;20454;-84
2022/06/23 13:43:50;;;;;;;2.93;2.30;;;;;;;;;;5034352;28;20477;-81
2022/06/23 13:46:22;;;;;;;2.63;2.43;;;;;;;;;;5032859;28;20900;-82
2022/06/23 13:48:53;;;;;;;2.57;2.37;;;;;;;;;;5033553;28;20457;-81
2022/06/23 13:51:22;;;;;;;3.70;2.17;;;;;;;;;;5033026;28;20802;-85
2022/06/23 13:53:53;;;;;;;2.57;2.37;;;;;;;;;;5023304;28;20462;-84
2022/06/23 13:56:23;;;;;;;1.93;1.83;;;;;;;;;;5035426;28;20446;-82
2022/06/23 13:58:54;;;;;;;2.20;2.10;;;;;;;;;;5033531;28;20473;-82
2022/06/23 14:01:26;;;;;;;2.70;2.30;;;;;;;;;;5031860;28;20964;-84
2022/06/23 14:03:57;;;;;;;5.20;2.27;;;;;;;;;;5033880;28;20454;-85
2022/06/23 14:06:27;;;;;;;2.57;2.37;;;;;;;;;;5031175;28;20458;-84
2022/06/23 14:08:58;;;;;;;2.50;2.30;;;;;;;;;;5033760;28;20508;-84
2022/06/23 14:11:29;;;;;;;2.77;2.57;;;;;;;;;;5029210;28;20968;-84
2022/06/23 14:13:59;;;;;;;2.60;2.33;;;;;;;;;;5033766;28;20454;-84
2022/06/23 14:16:28;;;;;;;4.03;2.30;;;;;;;;;;5019222;28;20454;-84
2022/06/23 14:18:59;;;;;;;4.17;2.50;;;;;;;;;;5032777;28;20494;-85
2022/06/23 14:21:29;;;;;;;2.33;2.13;;;;;;;;;;5032815;28;20469;-84
2022/06/23 14:24:02;;;;;;;2.50;2.30;;;;;;;;;;5032786;28;20477;-85
2022/06/23 14:26:34;;;;;;;2.43;2.23;;;;;;;;;;5034391;28;20445;-86
2022/06/23 14:29:06;;;;;;;2.37;2.17;;;;;;;;;;5034510;28;20438;-85
2022/06/23 14:31:35;;;;;;;3.20;2.90;;;;;;;;;;5032683;28;20470;-84
2022/06/23 14:34:06;;;;;;;2.13;1.93;;;;;;;;;;5026185;28;20446;-83
2022/06/23 14:36:36;;;;;;;2.43;2.03;;;;;;;;;;5029780;28;20826;-85
2022/06/23 14:39:07;;;;;;;2.80;2.60;;;;;;;;;;5014613;28;20854;-85
2022/06/23 14:41:42;;;;;;;2.63;2.43;;;;;;;;;;5031539;28;20454;-85
2022/06/23 14:44:20;;;;;;;3.30;2.57;;;;;;;;;;5038582;28;20467;-84
2022/06/23 14:46:53;;;;;;;3.00;2.80;;;;;;;;;;5032837;28;20466;-83
2022/06/23 14:49:28;;;;;;;3.87;2.53;;;;;;;;;;5026293;28;20450;-81
2022/06/23 14:51:58;;;;;;;3.17;2.87;;;;;;;;;;5028105;28;20469;-85
2022/06/23 14:54:30;;;;;;;3.40;3.07;;;;;;;;;;5029012;28;20813;-84
2022/06/23 14:57:00;;;;;;;3.03;2.73;;;;;;;;;;5033824;28;20920;-84
2022/06/23 14:59:31;;;;;;;2.93;2.53;;;;;;;;;;5028091;28;20481;-85
2022/06/23 15:02:04;;;;;;;2.40;2.20;;;;;;;;;;5026842;28;20543;-84
2022/06/23 15:04:35;;;;;;;2.87;2.67;;;;;;;;;;5033708;28;20832;-85
2022/06/23 15:07:05;;;;;;;6.93;2.57;;;;;;;;;;5028393;28;20971;-84
2022/06/23 15:09:41;;;;;;;2.30;2.10;;;;;;;;;;5031927;28;20550;-84
2022/06/23 15:12:13;;;;;;;2.80;2.57;;;;;;;;;;5023167;28;20453;-84
2022/06/23 15:14:41;;;;;;;2.70;2.50;;;;;;;;;;5032584;28;20453;-83
2022/06/23 15:17:11;;;;;;;2.60;2.40;;;;;;;;;;5026277;28;20474;-84
2022/06/23 15:19:41;;;;;;;3.00;2.70;;;;;;;;;;5033576;28;20478;-84
2022/06/23 15:25:02;;;;;;;3.13;2.67;;;;;;;;;;5032011;28;20417;-84
2022/06/23 15:27:34;;;;;;;3.63;3.03;;;;;;;;;;5033385;28;20477;-85